Time;durP1;ratioP1;P1;durP2;ratioP2;P2;SDS_P1;SDS_P2;PMS_P1;PMS_P2;Temp;Humidity;BMP_temperature;BMP_pressure;BME280_temperature;BME280_humidity;BME280_pressure;Samples;Min_cycle;Max_cycle;Signal;HPM_P1;HPM_P2
2021/09/24 00:01:12;;;;;;;19.10;12.13;;;12.50;99.90;;;;;;4940994;29;20641;-95
2021/09/24 00:03:38;;;;;;;18.65;11.73;;;12.50;99.90;;;;;;4924822;29;20282;-96
2021/09/24 00:06:05;;;;;;;22.58;10.75;;;12.50;99.90;;;;;;4957635;29;20537;-93
2021/09/24 00:08:31;;;;;;;20.92;11.93;;;12.50;99.90;;;;;;4924478;29;20540;-93
2021/09/24 00:10:57;;;;;;;19.77;12.18;;;12.30;99.90;;;;;;4957527;29;20214;-93
2021/09/24 00:13:23;;;;;;;19.55;11.50;;;12.50;99.90;;;;;;4940562;29;20206;-95
2021/09/24 00:15:51;;;;;;;21.05;12.13;;;12.50;99.90;;;;;;4957304;29;20183;-95
2021/09/24 00:18:17;;;;;;;17.45;10.65;;;12.50;99.90;;;;;;4924447;29;20645;-93
2021/09/24 00:20:43;;;;;;;20.45;11.63;;;12.50;99.90;;;;;;4957607;29;20266;-96
2021/09/24 00:23:09;;;;;;;23.88;12.75;;;;;;;;;;4942450;29;20209;-93
2021/09/24 00:25:34;;;;;;;15.82;10.80;;;12.50;99.90;;;;;;4943056;29;20237;-96
2021/09/24 00:30:37;;;;;;;15.95;11.73;;;12.50;99.90;;;;;;5220928;23;20257;-96
2021/09/24 00:33:03;;;;;;;17.42;12.05;;;;;;;;;;4944140;29;20680;-96
2021/09/24 00:35:29;;;;;;;23.85;13.90;;;;;;;;;;4940986;29;20198;-96
2021/09/24 00:37:55;;;;;;;21.75;12.32;;;12.50;99.90;;;;;;4941379;29;20183;-95
2021/09/24 00:40:21;;;;;;;25.98;12.48;;;;;;;;;;4947145;29;20557;-96
2021/09/24 00:42:47;;;;;;;18.17;11.65;;;;;;;;;;4942239;29;20238;-96
2021/09/24 00:45:15;;;;;;;24.52;13.30;;;;;;;;;;4945740;29;20183;-96
2021/09/24 00:47:41;;;;;;;23.45;12.38;;;;;;;;;;4948353;29;20688;-96
2021/09/24 00:50:08;;;;;;;21.50;13.07;;;12.50;99.90;;;;;;4946684;29;20210;-96
2021/09/24 00:52:37;;;;;;;24.15;13.00;;;12.60;99.90;;;;;;4933188;29;20214;-96
2021/09/24 00:55:04;;;;;;;24.60;12.40;;;12.50;99.90;;;;;;4949401;29;20179;-96
2021/09/24 00:57:31;;;;;;;21.98;12.68;;;;;;;;;;4965168;29;20179;-96
2021/09/24 00:59:57;;;;;;;17.42;10.43;;;;;;;;;;4961062;29;20183;-96
2021/09/24 01:02:22;;;;;;;17.25;11.18;;;12.50;99.90;;;;;;4941884;29;20737;-94
2021/09/24 01:04:48;;;;;;;17.10;9.35;;;;;;;;;;4941985;29;20274;-92
2021/09/24 01:07:14;;;;;;;20.27;10.55;;;12.80;99.90;;;;;;4941787;29;20187;-91
2021/09/24 01:09:40;;;;;;;19.60;10.25;;;12.90;99.90;;;;;;4958588;29;20176;-92
2021/09/24 01:12:07;;;;;;;16.73;10.15;;;12.90;99.90;;;;;;4940809;29;20206;-92
2021/09/24 01:14:33;;;;;;;20.95;10.50;;;12.90;99.90;;;;;;4957035;29;20184;-92
2021/09/24 01:16:59;;;;;;;16.17;9.20;;;13.00;99.90;;;;;;4942268;29;20191;-92
2021/09/24 01:19:26;;;;;;;12.60;9.60;;;13.00;99.90;;;;;;4958213;29;20190;-94
2021/09/24 01:21:52;;;;;;;13.05;8.70;;;13.20;99.90;;;;;;4910342;29;20245;-94
2021/09/24 01:24:18;;;;;;;14.35;6.65;;;;;;;;;;4957312;29;20630;-92
2021/09/24 01:26:50;;;;;;;8.80;7.03;;;13.40;99.90;;;;;;4957526;29;20175;-94
2021/09/24 01:29:16;;;;;;;10.60;7.18;;;13.40;99.90;;;;;;4958054;29;20214;-92
2021/09/24 01:31:43;;;;;;;7.88;6.03;;;13.40;99.90;;;;;;4958520;29;20282;-96
2021/09/24 01:34:08;;;;;;;7.70;5.38;;;13.40;99.90;;;;;;4925849;29;20649;-96
2021/09/24 01:36:34;;;;;;;6.68;5.40;;;13.40;99.90;;;;;;4941235;29;20183;-95
2021/09/24 01:39:08;;;;;;;8.65;5.07;;;13.50;99.90;;;;;;4954449;29;20186;-95
2021/09/24 01:41:38;;;;;;;6.72;4.72;;;13.60;99.90;;;;;;4940805;29;20707;-95
2021/09/24 01:44:04;;;;;;;8.32;5.15;;;13.60;99.90;;;;;;4957343;29;20185;-93
2021/09/24 01:46:29;;;;;;;11.40;4.55;;;13.50;99.90;;;;;;4942868;29;20238;-92
2021/09/24 01:48:55;;;;;;;5.15;4.32;;;13.50;99.90;;;;;;4957081;29;20215;-92
2021/09/24 01:51:21;;;;;;;7.75;5.13;;;13.60;99.90;;;;;;4941642;29;20622;-93
2021/09/24 01:53:48;;;;;;;8.30;4.47;;;13.50;99.90;;;;;;4943463;29;20648;-93
2021/09/24 01:56:14;;;;;;;7.45;4.05;;;13.60;99.90;;;;;;4956988;29;20187;-93
2021/09/24 01:58:39;;;;;;;4.47;3.88;;;13.60;99.90;;;;;;4939832;29;20250;-94
2021/09/24 02:01:05;;;;;;;5.75;3.78;;;13.50;99.90;;;;;;4908414;29;20229;-94
2021/09/24 02:03:31;;;;;;;5.30;3.72;;;13.50;99.90;;;;;;4957569;29;20667;-94
2021/09/24 02:05:57;;;;;;;9.18;4.70;;;13.50;99.90;;;;;;4940442;29;20221;-95
2021/09/24 02:08:22;;;;;;;8.73;4.43;;;13.60;99.90;;;;;;4939688;29;20647;-94
2021/09/24 02:10:48;;;;;;;10.98;6.38;;;13.60;99.90;;;;;;4939733;29;20632;-95
2021/09/24 02:13:13;;;;;;;14.18;4.28;;;13.40;99.90;;;;;;4908981;29;20242;-96
2021/09/24 02:15:39;;;;;;;6.13;3.80;;;13.50;99.90;;;;;;4924946;29;20640;-94
2021/09/24 02:18:05;;;;;;;11.88;3.95;;;13.60;99.90;;;;;;4957722;29;20183;-94
2021/09/24 02:20:31;;;;;;;9.57;2.92;;;13.60;99.90;;;;;;4924136;29;20641;-96
2021/09/24 02:22:56;;;;;;;6.82;2.75;;;13.60;99.90;;;;;;4965656;28;20210;-96
2021/09/24 02:25:22;;;;;;;5.55;2.67;;;13.50;99.90;;;;;;4948855;29;20256;-96
2021/09/24 02:27:48;;;;;;;10.70;2.58;;;13.40;99.90;;;;;;4945988;29;20182;-96
2021/09/24 02:30:14;;;;;;;6.60;2.05;;;13.40;99.90;;;;;;4977364;28;20227;-96
2021/09/24 02:32:40;;;;;;;6.65;2.25;;;;;;;;;;4962161;29;20230;-96
2021/09/24 02:35:09;;;;;;;9.35;1.63;;;13.20;99.90;;;;;;5123455;23;20729;-96
2021/09/24 02:37:35;;;;;;;7.10;2.00;;;13.20;99.90;;;;;;4886263;29;20173;-95
2021/09/24 02:40:01;;;;;;;7.18;1.73;;;;;;;;;;4883662;29;20189;-96
2021/09/24 02:42:27;;;;;;;5.18;1.83;;;13.10;99.90;;;;;;4907138;29;20192;-96
2021/09/24 02:44:53;;;;;;;7.97;1.50;;;;;;;;;;4902457;29;20177;-96
2021/09/24 02:47:19;;;;;;;7.85;1.95;;;;;;;;;;4888776;29;20182;-96
2021/09/24 02:49:47;;;;;;;7.80;1.70;;;;;;;;;;4898723;29;20181;-96
2021/09/24 02:52:13;;;;;;;4.35;1.30;;;12.80;99.90;;;;;;4885028;29;20585;-96
2021/09/24 02:54:39;;;;;;;6.20;1.52;;;;;;;;;;4871098;29;20280;-95
2021/09/24 02:57:05;;;;;;;4.80;1.65;;;;;;;;;;4907504;29;20177;-96
2021/09/24 02:59:31;;;;;;;8.63;1.55;;;12.60;99.90;;;;;;4887433;29;20661;-96
2021/09/24 03:01:58;;;;;;;7.38;1.80;;;;;;;;;;4889780;29;20188;-96
2021/09/24 03:04:25;;;;;;;6.68;1.70;;;12.20;99.90;;;;;;4889114;29;20193;-96
2021/09/24 03:06:50;;;;;;;9.07;1.73;;;12.40;99.90;;;;;;4904663;29;20182;-96
2021/09/24 03:09:16;;;;;;;7.45;1.70;;;12.30;99.90;;;;;;4905987;29;20573;-95
2021/09/24 03:11:42;;;;;;;4.85;1.98;;;12.30;99.90;;;;;;4903219;29;20539;-96
2021/09/24 03:14:08;;;;;;;6.15;1.50;;;12.20;99.90;;;;;;4888982;29;20732;-96
2021/09/24 03:16:34;;;;;;;7.80;1.85;;;12.10;99.90;;;;;;4887925;29;20264;-94
2021/09/24 03:18:59;;;;;;;8.00;1.63;;;12.00;99.90;;;;;;4903023;29;20213;-94
2021/09/24 03:21:25;;;;;;;8.73;1.63;;;;;;;;;;4886010;29;20660;-94
2021/09/24 03:23:51;;;;;;;5.72;1.70;;;11.80;99.90;;;;;;4885956;29;20213;-94
2021/09/24 03:26:18;;;;;;;8.13;2.20;;;11.80;99.90;;;;;;4902037;29;20239;-94
2021/09/24 03:28:44;;;;;;;5.60;1.75;;;11.80;99.90;;;;;;4885208;29;20190;-93
2021/09/24 03:31:10;;;;;;;9.45;1.88;;;11.80;99.90;;;;;;4885483;29;20260;-94
2021/09/24 03:33:36;;;;;;;4.65;1.70;;;;;;;;;;4884903;29;20209;-96
2021/09/24 03:36:03;;;;;;;8.82;1.70;;;11.70;99.90;;;;;;4902264;29;20256;-94
2021/09/24 03:38:28;;;;;;;7.50;2.08;;;11.70;99.90;;;;;;4902465;29;20228;-94
2021/09/24 03:40:54;;;;;;;5.82;1.83;;;11.70;99.90;;;;;;4901794;29;20268;-93
2021/09/24 03:43:20;;;;;;;8.93;1.65;;;11.60;99.90;;;;;;4870085;29;20639;-94
2021/09/24 03:45:45;;;;;;;7.45;2.47;;;11.60;99.90;;;;;;4901823;29;20635;-94
2021/09/24 03:48:11;;;;;;;5.30;1.90;;;11.60;99.90;;;;;;4869897;29;20194;-94
2021/09/24 03:50:37;;;;;;;7.45;1.77;;;11.60;99.90;;;;;;4884964;29;20197;-93
2021/09/24 03:53:02;;;;;;;9.23;2.17;;;11.70;99.90;;;;;;4869602;29;20264;-96
2021/09/24 03:55:28;;;;;;;8.48;1.90;;;11.70;99.90;;;;;;4869779;29;20181;-93
2021/09/24 03:57:54;;;;;;;10.93;2.00;;;11.60;99.90;;;;;;4884884;29;20678;-93
2021/09/24 04:00:20;;;;;;;17.45;1.77;;;11.60;99.90;;;;;;4869697;29;20188;-93
2021/09/24 04:02:46;;;;;;;12.65;2.42;;;;;;;;;;4880975;29;20193;-93
2021/09/24 04:05:12;;;;;;;12.77;2.00;;;11.30;99.90;;;;;;4884391;29;20181;-90
2021/09/24 04:07:38;;;;;;;8.30;1.73;;;11.50;99.90;;;;;;4884356;29;20189;-90
2021/09/24 04:10:04;;;;;;;8.60;1.92;;;11.50;99.90;;;;;;4885714;29;20286;-90
2021/09/24 04:12:29;;;;;;;11.15;1.92;;;11.50;99.90;;;;;;4902886;29;20300;-93
2021/09/24 04:14:55;;;;;;;14.85;2.20;;;11.40;99.90;;;;;;4869299;29;20570;-92
2021/09/24 04:17:21;;;;;;;11.80;2.13;;;;;;;;;;4901161;29;20173;-94
2021/09/24 04:19:47;;;;;;;15.02;2.03;;;11.50;99.90;;;;;;4883621;29;20330;-92
2021/09/24 04:22:13;;;;;;;6.85;1.55;;;11.50;99.90;;;;;;4868619;29;20276;-91
2021/09/24 04:24:38;;;;;;;7.50;1.80;;;11.50;99.90;;;;;;4868259;29;20185;-90
2021/09/24 04:27:04;;;;;;;6.22;1.95;;;11.50;99.90;;;;;;4899719;29;20181;-90
2021/09/24 04:29:30;;;;;;;12.37;2.50;;;11.50;99.90;;;;;;4883504;29;20186;-91
2021/09/24 04:31:56;;;;;;;10.82;2.13;;;11.60;99.90;;;;;;4867894;29;20250;-89
2021/09/24 04:34:22;;;;;;;6.45;1.98;;;;;;;;;;4879826;29;20670;-88
2021/09/24 04:36:47;;;;;;;16.02;2.40;;;11.60;99.90;;;;;;4898872;29;20277;-90
2021/09/24 04:39:13;;;;;;;13.50;1.92;;;11.60;99.90;;;;;;4882686;29;20225;-90
2021/09/24 04:41:39;;;;;;;8.10;2.28;;;11.50;99.90;;;;;;4898620;29;20201;-90
2021/09/24 04:44:04;;;;;;;10.98;2.33;;;11.50;99.90;;;;;;4899123;29;20197;-90
2021/09/24 04:46:30;;;;;;;13.02;2.50;;;11.50;99.90;;;;;;4899479;29;20277;-93
2021/09/24 04:48:57;;;;;;;15.60;2.38;;;11.50;99.90;;;;;;4899545;29;20284;-91
2021/09/24 04:51:23;;;;;;;10.30;2.05;;;11.50;99.90;;;;;;4899403;29;20293;-91
2021/09/24 04:53:49;;;;;;;14.88;2.20;;;11.50;99.90;;;;;;4898031;29;20220;-94
2021/09/24 04:56:15;;;;;;;10.98;2.10;;;;;;;;;;4899207;29;20194;-94
2021/09/24 04:58:42;;;;;;;13.05;2.00;;;11.60;99.90;;;;;;4867882;29;20216;-90
2021/09/24 05:01:07;;;;;;;17.55;2.35;;;11.60;99.90;;;;;;4881889;29;20213;-91
2021/09/24 05:03:33;;;;;;;10.27;2.90;;;11.60;99.90;;;;;;4898384;29;20193;-93
2021/09/24 05:05:59;;;;;;;7.32;2.40;;;11.70;99.90;;;;;;4880494;29;20205;-90
2021/09/24 05:08:25;;;;;;;8.75;1.90;;;11.60;99.90;;;;;;4881395;29;20244;-95
2021/09/24 05:10:51;;;;;;;13.35;2.83;;;;;;;;;;4881908;29;20189;-89
2021/09/24 05:13:16;;;;;;;10.90;2.20;;;11.60;99.90;;;;;;4881801;29;20248;-92
2021/09/24 05:15:42;;;;;;;12.00;2.58;;;11.60;99.90;;;;;;4897976;29;20242;-90
2021/09/24 05:18:07;;;;;;;7.35;2.30;;;11.60;99.90;;;;;;4898206;29;20310;-92
2021/09/24 05:20:34;;;;;;;9.55;1.95;;;11.60;99.90;;;;;;4884769;29;20264;-92
2021/09/24 05:22:59;;;;;;;19.60;3.20;;;11.60;99.90;;;;;;4867962;29;20189;-96
2021/09/24 05:25:25;;;;;;;14.05;2.58;;;11.70;99.90;;;;;;4898963;29;20233;-92
2021/09/24 05:27:52;;;;;;;7.57;1.85;;;11.70;99.90;;;;;;4903177;29;20188;-94
2021/09/24 05:30:19;;;;;;;9.57;2.38;;;11.70;99.90;;;;;;4902079;29;20252;-95
2021/09/24 05:32:44;;;;;;;10.10;2.10;;;11.80;99.90;;;;;;4904064;29;20213;-89
2021/09/24 05:35:11;;;;;;;14.13;2.58;;;11.70;99.90;;;;;;4882709;29;20259;-93
2021/09/24 05:37:37;;;;;;;11.93;2.40;;;11.80;99.90;;;;;;4898173;29;20256;-96
2021/09/24 05:40:05;;;;;;;7.70;1.47;;;11.80;99.90;;;;;;4898430;29;20264;-93
2021/09/24 05:42:31;;;;;;;10.57;1.70;;;11.70;99.90;;;;;;4883346;29;20553;-93
2021/09/24 05:44:56;;;;;;;12.25;2.10;;;11.80;99.90;;;;;;4882733;29;20272;-92
2021/09/24 05:47:22;;;;;;;15.98;2.00;;;11.90;99.90;;;;;;4900378;29;20599;-92
2021/09/24 05:49:48;;;;;;;9.95;2.25;;;11.90;99.90;;;;;;4867550;29;20201;-93
2021/09/24 05:52:13;;;;;;;11.38;2.17;;;11.90;99.90;;;;;;4882388;29;20224;-94
2021/09/24 05:54:39;;;;;;;9.68;2.70;;;;;;;;;;4851739;29;20181;-94
2021/09/24 05:57:05;;;;;;;21.20;3.08;;;11.90;99.90;;;;;;4882442;29;20267;-94
2021/09/24 05:59:31;;;;;;;13.13;2.58;;;12.00;99.90;;;;;;4875194;29;20684;-93
2021/09/24 06:01:56;;;;;;;11.45;2.28;;;11.90;99.90;;;;;;4891708;29;20181;-93
2021/09/24 06:04:22;;;;;;;7.78;1.92;;;12.00;99.90;;;;;;4903637;29;20184;-92
2021/09/24 06:06:48;;;;;;;14.57;3.30;;;12.00;99.90;;;;;;4874339;29;20205;-90
2021/09/24 06:09:15;;;;;;;10.95;2.22;;;12.10;99.90;;;;;;4906074;29;20172;-93
2021/09/24 06:11:41;;;;;;;11.15;1.95;;;12.00;99.90;;;;;;4887400;29;20867;-92
2021/09/24 06:14:06;;;;;;;7.88;1.80;;;12.00;99.90;;;;;;4871466;29;20299;-92
2021/09/24 06:16:33;;;;;;;8.27;2.30;;;;;;;;;;4904778;29;20256;-94
2021/09/24 06:18:59;;;;;;;13.25;2.08;;;13.20;99.90;;;;;;4905022;29;20214;-94
2021/09/24 06:21:29;;;;;;;7.15;1.75;;;12.30;99.90;;;;;;4889288;29;20185;-93
2021/09/24 06:23:55;;;;;;;10.50;2.58;;;;;;;;;;4905073;29;20646;-93
2021/09/24 06:26:21;;;;;;;12.30;2.47;;;;;;;;;;4874876;29;20181;-93
2021/09/24 06:28:47;;;;;;;10.25;1.77;;;12.20;99.90;;;;;;4908559;29;20259;-92
2021/09/24 06:31:21;;;;;;;16.73;1.85;;;12.20;99.90;;;;;;4888737;29;20568;-94
2021/09/24 06:33:46;;;;;;;8.10;1.30;;;12.40;99.90;;;;;;4885769;29;20232;-93
2021/09/24 06:36:17;;;;;;;11.23;2.13;;;12.10;99.90;;;;;;4920793;29;20588;-94
2021/09/24 06:38:46;;;;;;;10.48;2.47;;;;;;;;;;4893228;29;20192;-90
2021/09/24 06:41:13;;;;;;;11.43;2.00;;;12.10;99.90;;;;;;4913845;29;20711;-90
2021/09/24 06:43:39;;;;;;;13.52;2.40;;;12.10;99.90;;;;;;4881698;29;20209;-95
2021/09/24 06:46:05;;;;;;;9.93;1.88;;;;;;;;;;4881502;29;20189;-93
2021/09/24 06:48:31;;;;;;;14.00;2.30;;;;;;;;;;4898946;29;20185;-94
2021/09/24 06:50:57;;;;;;;7.78;2.05;;;12.20;99.90;;;;;;4898973;29;20177;-94
2021/09/24 06:53:23;;;;;;;9.93;2.03;;;;;;;;;;4899325;29;20219;-95
2021/09/24 06:55:48;;;;;;;10.70;1.92;;;12.10;99.90;;;;;;4867018;29;20256;-92
2021/09/24 06:58:14;;;;;;;14.68;2.40;;;12.20;99.90;;;;;;4881977;29;20750;-93
2021/09/24 07:00:39;;;;;;;16.63;2.50;;;12.20;99.90;;;;;;4851425;29;20189;-93
2021/09/24 07:03:05;;;;;;;6.00;2.17;;;12.10;99.90;;;;;;4882095;29;20650;-94
2021/09/24 07:05:31;;;;;;;9.98;2.47;;;12.10;99.90;;;;;;4898365;29;20182;-92
2021/09/24 07:07:56;;;;;;;13.68;2.80;;;12.20;99.90;;;;;;4850507;29;20639;-90
2021/09/24 07:10:22;;;;;;;13.23;2.63;;;12.10;99.90;;;;;;4850855;29;20181;-92
2021/09/24 07:12:48;;;;;;;9.63;2.05;;;12.20;99.90;;;;;;4905333;29;20240;-95
2021/09/24 07:15:16;;;;;;;11.93;2.65;;;12.20;99.90;;;;;;4879261;29;20189;-96
2021/09/24 07:17:41;;;;;;;14.10;2.25;;;12.30;99.90;;;;;;4906390;29;20182;-93
2021/09/24 07:20:08;;;;;;;8.95;2.08;;;12.30;99.90;;;;;;4885382;29;20261;-94
2021/09/24 07:22:34;;;;;;;11.50;2.97;;;12.30;99.90;;;;;;4900994;29;20181;-92
2021/09/24 07:24:59;;;;;;;13.88;2.85;;;12.40;99.90;;;;;;4898486;29;20181;-96
2021/09/24 07:27:25;;;;;;;15.27;2.85;;;12.40;99.90;;;;;;4882234;29;20185;-92
2021/09/24 07:29:52;;;;;;;7.80;1.98;;;12.40;99.90;;;;;;4890700;29;20178;-92
2021/09/24 07:32:17;;;;;;;13.00;3.45;;;12.40;99.90;;;;;;4920482;29;20261;-94
2021/09/24 07:34:44;;;;;;;10.57;2.08;;;;;;;;;;4936144;23;20235;-92
2021/09/24 07:37:11;;;;;;;10.25;2.58;;;12.30;99.90;;;;;;4927522;29;20200;-94
2021/09/24 07:39:37;;;;;;;14.18;2.90;;;12.30;99.90;;;;;;4915419;29;20280;-94
2021/09/24 07:42:03;;;;;;;11.93;2.78;;;12.30;99.90;;;;;;4880554;29;20311;-95
2021/09/24 07:44:30;;;;;;;10.00;2.70;;;12.30;99.90;;;;;;4911901;29;20725;-94
2021/09/24 07:46:56;;;;;;;13.02;3.10;;;;;;;;;;4910554;29;20555;-96
2021/09/24 07:49:22;;;;;;;19.92;2.90;;;;;;;;;;4910398;29;20188;-94
2021/09/24 07:51:48;;;;;;;13.38;3.15;;;12.50;99.90;;;;;;4915821;29;20184;-95
2021/09/24 07:54:14;;;;;;;13.00;3.25;;;;;;;;;;4914919;29;20208;-94
2021/09/24 07:56:40;;;;;;;12.90;2.75;;;12.50;99.90;;;;;;4918347;29;20192;-94
2021/09/24 07:59:05;;;;;;;10.07;2.05;;;12.50;99.90;;;;;;4913337;29;20232;-94
2021/09/24 08:01:31;;;;;;;11.75;2.72;;;12.50;99.90;;;;;;4918282;29;20237;-95
2021/09/24 08:03:57;;;;;;;15.02;3.67;;;12.60;99.90;;;;;;4908984;29;20201;-93
2021/09/24 08:06:22;;;;;;;13.63;3.00;;;12.50;99.90;;;;;;4909997;29;20184;-96
2021/09/24 08:08:48;;;;;;;13.40;3.75;;;12.50;99.90;;;;;;4913989;29;20185;-95
2021/09/24 08:11:15;;;;;;;15.15;3.17;;;12.60;99.90;;;;;;4912867;29;20193;-93
2021/09/24 08:13:41;;;;;;;13.90;3.08;;;12.50;99.90;;;;;;4906800;29;20208;-94
2021/09/24 08:16:07;;;;;;;17.05;3.88;;;12.60;99.90;;;;;;4900574;29;20224;-94
2021/09/24 08:18:33;;;;;;;11.05;3.80;;;12.60;99.90;;;;;;4908297;29;20751;-95
2021/09/24 08:20:59;;;;;;;15.82;3.65;;;12.70;99.90;;;;;;4913373;29;20206;-93
2021/09/24 08:23:26;;;;;;;13.35;3.22;;;12.60;99.90;;;;;;4912614;29;20197;-96
2021/09/24 08:25:51;;;;;;;16.50;2.78;;;12.70;99.90;;;;;;4910397;29;20189;-93
2021/09/24 08:28:17;;;;;;;6.63;2.28;;;12.70;99.90;;;;;;4899240;29;20291;-96
2021/09/24 08:30:43;;;;;;;16.27;3.45;;;12.80;99.90;;;;;;4913254;29;20186;-95
2021/09/24 08:33:09;;;;;;;15.43;2.70;;;12.90;99.90;;;;;;4902444;29;20225;-96
2021/09/24 08:35:35;;;;;;;9.13;3.45;;;12.90;99.90;;;;;;4921458;29;20713;-95
2021/09/24 08:38:01;;;;;;;10.30;2.85;;;12.90;99.90;;;;;;4923529;29;20185;-95
2021/09/24 08:40:30;;;;;;;14.98;3.35;;;12.90;99.90;;;;;;4934079;29;20196;-92
2021/09/24 08:42:56;;;;;;;11.55;3.10;;;12.80;99.90;;;;;;4941078;29;20201;-91
2021/09/24 08:45:23;;;;;;;9.05;2.75;;;12.90;99.90;;;;;;5047909;23;20562;-92
2021/09/24 08:48:06;;;;;;;16.92;2.58;;;12.90;99.90;;;;;;4959290;29;20268;-95
2021/09/24 08:50:36;;;;;;;8.43;2.25;;;13.10;99.90;;;;;;4950790;29;20218;-93
2021/09/24 08:53:03;;;;;;;12.73;3.40;;;13.20;99.90;;;;;;4945304;29;20235;-96
2021/09/24 08:55:29;;;;;;;7.03;2.05;;;;;;;;;;4955592;29;20199;-92
2021/09/24 08:57:56;;;;;;;7.50;2.30;;;;;;;;;;4959592;29;20252;-95
2021/09/24 09:00:23;;;;;;;10.60;2.67;;;13.20;99.90;;;;;;4940796;28;20156;-95
2021/09/24 09:03:18;;;;;;;8.57;2.45;;;13.10;99.90;;;;;;4944258;29;20188;-94
2021/09/24 09:05:59;;;;;;;11.13;2.97;;;13.20;99.90;;;;;;5209127;23;20241;-90
2021/09/24 09:08:28;;;;;;;14.50;2.80;;;13.20;99.90;;;;;;4955571;23;20258;-96
2021/09/24 09:11:08;;;;;;;9.88;2.47;;;13.20;99.90;;;;;;4984422;23;20180;-89
2021/09/24 09:13:38;;;;;;;11.82;2.60;;;13.20;99.90;;;;;;5109654;23;20291;-94
2021/09/24 09:16:24;;;;;;;10.05;2.20;;;13.30;99.90;;;;;;4924941;29;20220;-96
2021/09/24 09:19:05;;;;;;;11.68;2.72;;;13.30;99.90;;;;;;5207160;23;20202;-93
2021/09/24 09:21:31;;;;;;;9.48;2.40;;;;;;;;;;4946333;29;20192;-93
2021/09/24 09:23:57;;;;;;;14.15;2.72;;;;;;;;;;5149589;23;20255;-95
2021/09/24 09:26:25;;;;;;;8.02;2.40;;;;;;;;;;4939155;29;20204;-96
2021/09/24 09:28:57;;;;;;;18.27;2.55;;;13.40;99.90;;;;;;4941167;29;20211;-92
2021/09/24 09:31:32;;;;;;;12.93;3.30;;;13.40;99.90;;;;;;4935327;29;20251;-93
2021/09/24 09:34:11;;;;;;;11.23;2.28;;;13.40;99.90;;;;;;4926841;29;20296;-95
2021/09/24 09:36:40;;;;;;;14.82;2.53;;;13.50;99.90;;;;;;4930242;29;20208;-94
2021/09/24 09:39:11;;;;;;;14.23;2.80;;;13.40;99.90;;;;;;4930664;29;20230;-95
2021/09/24 09:41:50;;;;;;;6.90;2.15;;;13.50;99.90;;;;;;4924926;29;20176;-94
2021/09/24 09:44:31;;;;;;;12.32;2.95;;;13.70;99.90;;;;;;4928081;29;20208;-96
2021/09/24 09:46:57;;;;;;;7.10;2.00;;;13.40;99.90;;;;;;4933198;29;20186;-94
2021/09/24 09:49:26;;;;;;;13.88;2.22;;;13.40;99.90;;;;;;4938199;29;20218;-93
2021/09/24 09:52:09;;;;;;;14.57;2.05;;;13.50;99.90;;;;;;4946360;29;20175;-95
2021/09/24 09:54:36;;;;;;;11.45;2.45;;;13.50;99.90;;;;;;4925049;29;20200;-95
2021/09/24 09:57:21;;;;;;;9.23;2.30;;;13.60;99.90;;;;;;4909168;29;20596;-94
2021/09/24 09:59:52;;;;;;;8.38;2.00;;;13.60;99.90;;;;;;4926517;29;20266;-92
2021/09/24 10:02:27;;;;;;;13.25;2.47;;;13.60;99.90;;;;;;4925873;29;20181;-90
2021/09/24 10:04:53;;;;;;;9.73;2.05;;;13.60;99.90;;;;;;4924078;29;20184;-92
2021/09/24 10:07:22;;;;;;;7.03;2.15;;;13.50;99.90;;;;;;4907462;29;20255;-94
2021/09/24 10:10:00;;;;;;;5.03;2.22;;;13.50;99.90;;;;;;4925672;29;20187;-92
2021/09/24 10:12:26;;;;;;;16.65;2.33;;;13.60;99.90;;;;;;4926795;29;20208;-95
2021/09/24 10:14:52;;;;;;;8.98;2.80;;;13.50;99.90;;;;;;4912927;29;20193;-95
2021/09/24 10:17:20;;;;;;;20.88;2.40;;;13.60;99.90;;;;;;4920927;29;20247;-95
2021/09/24 10:19:47;;;;;;;9.85;2.60;;;13.60;99.90;;;;;;4923368;29;20190;-94
2021/09/24 10:22:13;;;;;;;11.65;2.35;;;13.60;99.90;;;;;;4927419;29;20184;-95
2021/09/24 10:24:40;;;;;;;8.50;2.50;;;13.50;99.90;;;;;;4953676;29;20291;-95
2021/09/24 10:27:10;;;;;;;13.10;2.42;;;13.50;99.90;;;;;;4942147;29;20187;-95
2021/09/24 10:29:41;;;;;;;12.05;3.10;;;13.60;99.90;;;;;;4961169;28;20175;-93
2021/09/24 10:32:14;;;;;;;11.60;3.08;;;13.50;99.90;;;;;;4935047;29;20270;-95
2021/09/24 10:35:11;;;;;;;9.15;2.65;;;13.60;99.90;;;;;;4959513;29;20186;-93
2021/09/24 10:37:39;;;;;;;7.47;2.53;;;13.60;99.90;;;;;;4921413;29;20270;-95
2021/09/24 10:40:21;;;;;;;10.27;2.40;;;13.60;99.90;;;;;;4931403;29;20273;-96
2021/09/24 10:42:48;;;;;;;9.27;2.72;;;13.60;99.90;;;;;;4954853;29;20207;-95
2021/09/24 10:45:16;;;;;;;10.82;2.83;;;;;;;;;;5369335;23;21678;-94
2021/09/24 10:47:55;;;;;;;10.32;2.70;;;13.60;99.90;;;;;;5360208;23;20248;-93
2021/09/24 10:50:33;;;;;;;9.52;2.42;;;13.70;99.90;;;;;;4906883;29;20650;-95
2021/09/24 10:53:10;;;;;;;8.95;2.55;;;13.60;99.90;;;;;;4891840;29;20208;-95
2021/09/24 10:55:36;;;;;;;8.98;3.00;;;;;;;;;;4905819;29;20193;-92
2021/09/24 10:58:03;;;;;;;7.65;2.40;;;13.70;99.90;;;;;;4889098;29;20180;-91
2021/09/24 11:00:31;;;;;;;7.90;2.45;;;13.60;99.90;;;;;;4884831;29;20181;-92
2021/09/24 11:03:10;;;;;;;12.27;4.05;;;13.50;99.90;;;;;;4875592;29;20205;-92
2021/09/24 11:05:55;;;;;;;10.15;2.60;;;13.60;99.90;;;;;;4882549;29;20240;-95
2021/09/24 11:08:32;;;;;;;11.73;2.80;;;13.60;99.90;;;;;;4895315;29;20204;-92
2021/09/24 11:11:05;;;;;;;8.65;2.67;;;13.70;99.90;;;;;;4882947;29;20185;-94
2021/09/24 11:13:34;;;;;;;10.07;2.63;;;13.70;99.90;;;;;;4883193;29;20683;-94
2021/09/24 11:16:02;;;;;;;15.85;2.97;;;13.70;99.90;;;;;;4891896;29;20685;-95
2021/09/24 11:18:49;;;;;;;6.43;2.80;;;13.80;99.90;;;;;;4913445;29;20195;-95
2021/09/24 11:21:16;;;;;;;9.65;2.50;;;13.80;99.90;;;;;;4906530;29;20176;-95
2021/09/24 11:23:43;;;;;;;14.73;2.78;;;13.80;99.90;;;;;;4915104;29;20185;-95
2021/09/24 11:26:25;;;;;;;9.40;2.97;;;13.90;99.90;;;;;;4897171;29;20538;-94
2021/09/24 11:29:07;;;;;;;12.00;3.30;;;13.90;99.90;;;;;;4911122;29;20170;-95
2021/09/24 11:32:00;;;;;;;13.50;3.33;;;13.80;99.90;;;;;;4892851;29;20240;-95
2021/09/24 11:34:46;;;;;;;8.63;2.22;;;13.90;99.90;;;;;;4888118;29;20217;-92
2021/09/24 11:37:27;;;;;;;13.10;2.60;;;13.90;99.90;;;;;;4889783;29;20185;-95
2021/09/24 11:40:11;;;;;;;11.88;2.70;;;14.00;99.90;;;;;;4907629;29;20173;-91
2021/09/24 11:42:46;;;;;;;7.03;2.45;;;14.10;99.90;;;;;;4890985;29;20177;-92
2021/09/24 11:45:22;;;;;;;10.60;2.45;;;14.20;99.90;;;;;;4905237;29;20196;-94
2021/09/24 11:47:58;;;;;;;7.72;2.25;;;14.20;99.90;;;;;;4889110;29;20318;-95
2021/09/24 11:50:25;;;;;;;7.72;1.85;;;14.20;99.90;;;;;;4905886;29;20533;-91
2021/09/24 11:52:55;;;;;;;18.25;2.80;;;14.20;99.90;;;;;;4911240;29;20725;-93
2021/09/24 11:55:38;;;;;;;22.58;4.20;;;14.20;99.90;;;;;;4910386;29;20209;-94
2021/09/24 11:58:08;;;;;;;5.28;1.75;;;14.40;99.90;;;;;;4890263;29;20189;-93
2021/09/24 12:00:37;;;;;;;16.65;3.13;;;14.60;99.90;;;;;;4911974;29;20184;-96
2021/09/24 12:03:08;;;;;;;6.68;2.25;;;14.60;99.90;;;;;;4912804;29;20225;-95
2021/09/24 12:05:34;;;;;;;8.77;2.88;;;14.90;99.90;;;;;;4920072;29;20176;-93
2021/09/24 12:08:00;;;;;;;9.13;2.78;;;14.70;99.90;;;;;;4926099;29;20213;-96
2021/09/24 12:10:30;;;;;;;8.43;2.22;;;14.70;99.90;;;;;;4907939;29;20182;-94
2021/09/24 12:13:15;;;;;;;15.00;2.78;;;14.80;99.90;;;;;;4902782;29;20219;-90
2021/09/24 12:15:59;;;;;;;7.43;2.22;;;14.80;99.90;;;;;;4923601;29;20181;-94
2021/09/24 12:18:43;;;;;;;15.60;3.42;;;14.80;99.90;;;;;;4976470;23;20247;-94
2021/09/24 12:21:09;;;;;;;14.73;2.75;;;14.70;99.90;;;;;;4920179;29;20268;-92
2021/09/24 12:23:35;;;;;;;10.10;2.60;;;14.60;99.90;;;;;;4923724;29;20212;-89
2021/09/24 12:26:03;;;;;;;10.10;2.83;;;14.50;99.90;;;;;;4919558;29;20649;-93
2021/09/24 12:28:29;;;;;;;7.88;2.30;;;14.50;99.90;;;;;;4919620;29;20627;-92
2021/09/24 12:30:55;;;;;;;7.65;2.47;;;;;;;;;;4907869;29;20220;-94
2021/09/24 12:33:24;;;;;;;7.72;3.17;;;14.30;99.90;;;;;;4917677;29;20207;-93
2021/09/24 12:36:05;;;;;;;9.20;2.85;;;14.40;99.90;;;;;;4931122;29;20177;-92
2021/09/24 12:38:34;;;;;;;9.85;2.58;;;14.60;99.90;;;;;;4937856;29;20222;-91
2021/09/24 12:41:11;;;;;;;12.50;3.13;;;14.80;99.90;;;;;;4928541;29;20192;-90
2021/09/24 12:43:38;;;;;;;9.55;2.20;;;15.00;99.90;;;;;;4911092;29;20188;-88
2021/09/24 12:46:05;;;;;;;11.00;2.45;;;15.00;99.90;;;;;;4911981;29;20214;-93
2021/09/24 12:48:46;;;;;;;9.70;2.85;;;15.40;99.90;;;;;;4917158;29;20189;-91
2021/09/24 12:51:14;;;;;;;10.43;2.25;;;15.10;99.90;;;;;;4907253;29;20185;-94
2021/09/24 12:53:43;;;;;;;9.65;2.03;;;15.10;99.90;;;;;;4901069;29;20268;-92
2021/09/24 12:56:12;;;;;;;6.78;2.40;;;15.10;99.90;;;;;;4903121;29;20189;-91
2021/09/24 12:58:42;;;;;;;4.47;2.20;;;15.00;99.90;;;;;;4910098;29;20180;-89
2021/09/24 13:01:10;;;;;;;9.02;2.35;;;15.00;99.90;;;;;;4926040;29;20642;-91
2021/09/24 13:03:41;;;;;;;11.18;2.72;;;15.30;99.90;;;;;;4915906;29;20199;-91